Time;durP1;ratioP1;P1;durP2;ratioP2;P2;SDS_P1;SDS_P2;PMS_P1;PMS_P2;Temp;Humidity;BMP_temperature;BMP_pressure;BME280_temperature;BME280_humidity;BME280_pressure;Samples;Min_cycle;Max_cycle;Signal;HPM_P1;HPM_P2
2022/09/30 00:01:03;;;;;;;14.02;8.23;;;11.50;77.30;;;;;;9180978;19;20098;-69
2022/09/30 00:04:10;;;;;;;13.45;8.30;;;11.50;77.30;;;;;;9181103;19;20010;-68
2022/09/30 00:07:16;;;;;;;13.15;8.43;;;11.50;77.30;;;;;;9179566;19;20086;-67
2022/09/30 00:10:20;;;;;;;15.15;8.10;;;11.50;77.40;;;;;;9177227;19;20011;-67
2022/09/30 00:13:24;;;;;;;13.68;8.32;;;11.40;77.30;;;;;;9181116;19;20022;-68
2022/09/30 00:16:32;;;;;;;11.48;7.63;;;11.40;77.40;;;;;;9179502;19;20026;-68
2022/09/30 00:19:36;;;;;;;12.93;8.00;;;11.40;77.40;;;;;;9180423;19;20440;-68
2022/09/30 00:22:43;;;;;;;19.13;8.57;;;11.40;77.40;;;;;;9178782;19;20339;-68
2022/09/30 00:25:47;;;;;;;13.48;8.35;;;11.40;78.10;;;;;;9179903;19;20507;-68
2022/09/30 00:28:52;;;;;;;14.20;8.23;;;11.40;77.40;;;;;;9179679;19;20507;-68
2022/09/30 00:31:56;;;;;;;17.85;8.80;;;11.40;77.50;;;;;;9179779;19;20014;-67
2022/09/30 00:34:59;;;;;;;13.88;8.52;;;11.40;77.50;;;;;;9176333;19;20010;-70
2022/09/30 00:38:05;;;;;;;16.60;9.27;;;11.40;77.50;;;;;;9179987;19;20014;-68
2022/09/30 00:41:09;;;;;;;16.50;9.88;;;11.40;77.50;;;;;;9180854;19;20089;-69
2022/09/30 00:44:43;;;;;;;15.10;8.48;;;11.40;77.50;;;;;;9179796;19;20014;-67
2022/09/30 00:47:53;;;;;;;12.73;9.38;;;11.40;77.60;;;;;;9178004;19;20507;-68
2022/09/30 00:50:57;;;;;;;16.50;9.43;;;11.40;77.60;;;;;;9178759;19;20018;-68
2022/09/30 00:54:07;;;;;;;14.70;8.38;;;11.40;77.60;;;;;;9179161;19;20018;-67
2022/09/30 00:57:11;;;;;;;14.00;8.82;;;11.40;77.60;;;;;;9174871;19;20031;-68
2022/09/30 01:00:15;;;;;;;14.15;9.50;;;11.40;77.60;;;;;;9178669;19;20496;-69
2022/09/30 01:03:21;;;;;;;13.07;9.25;;;11.40;77.60;;;;;;9174902;19;20018;-69
2022/09/30 01:06:25;;;;;;;11.55;8.82;;;11.40;77.60;;;;;;9178320;19;20014;-69
2022/09/30 01:09:34;;;;;;;14.90;8.70;;;11.40;77.60;;;;;;9175826;19;20010;-69
2022/09/30 01:12:38;;;;;;;13.65;8.15;;;11.40;77.60;;;;;;9178985;19;20010;-67
2022/09/30 01:15:54;;;;;;;13.80;8.80;;;11.40;77.60;;;;;;9176236;19;20052;-67
2022/09/30 01:19:14;;;;;;;19.58;8.55;;;11.40;77.60;;;;;;9177637;19;20014;-66
2022/09/30 01:22:27;;;;;;;16.25;8.18;;;11.30;77.60;;;;;;9176317;19;20014;-67
2022/09/30 01:26:05;;;;;;;11.93;7.40;;;11.30;77.60;;;;;;9177977;19;20015;-67
2022/09/30 01:29:37;;;;;;;11.10;8.25;;;11.30;77.70;;;;;;9177303;19;20011;-69
2022/09/30 01:33:05;;;;;;;19.58;8.57;;;11.30;77.60;;;;;;9177318;19;20070;-67
2022/09/30 01:36:20;;;;;;;11.25;8.05;;;11.20;77.60;;;;;;9177676;19;20498;-67
2022/09/30 01:39:38;;;;;;;15.85;7.68;;;11.20;77.60;;;;;;9175851;19;20468;-67
2022/09/30 01:42:49;;;;;;;13.95;8.43;;;11.10;77.60;;;;;;9170353;19;20022;-69
2022/09/30 01:45:59;;;;;;;12.95;7.75;;;11.10;77.60;;;;;;9177326;19;20014;-69
2022/09/30 01:49:11;;;;;;;12.75;8.85;;;11.00;77.60;;;;;;9183202;19;20011;-69
2022/09/30 01:52:17;;;;;;;13.43;8.57;;;11.00;77.60;;;;;;9180674;19;20022;-67
2022/09/30 01:55:25;;;;;;;10.68;7.93;;;10.90;77.60;;;;;;9185370;19;20357;-67
2022/09/30 01:58:38;;;;;;;13.57;8.40;;;10.90;77.60;;;;;;9179922;19;20094;-69
2022/09/30 02:01:47;;;;;;;12.27;7.93;;;10.90;77.70;;;;;;9182622;19;20484;-68
2022/09/30 02:04:58;;;;;;;12.82;7.70;;;10.80;77.70;;;;;;9184436;19;20015;-68
2022/09/30 02:08:08;;;;;;;14.45;7.82;;;10.80;77.70;;;;;;9183877;19;20030;-68
2022/09/30 02:11:17;;;;;;;12.90;8.18;;;10.70;77.70;;;;;;9183542;19;20011;-69
2022/09/30 02:14:28;;;;;;;13.23;7.82;;;10.60;77.60;;;;;;9184522;19;20014;-68
2022/09/30 02:17:35;;;;;;;11.18;8.20;;;10.60;77.70;;;;;;9184528;19;20010;-67
2022/09/30 02:20:44;;;;;;;11.75;7.95;;;10.60;77.70;;;;;;9184867;19;20015;-69
2022/09/30 02:23:50;;;;;;;13.18;8.52;;;10.50;77.70;;;;;;9180605;19;20031;-69
2022/09/30 02:26:56;;;;;;;14.00;8.25;;;10.50;77.80;;;;;;9184238;19;20014;-69
2022/09/30 02:30:02;;;;;;;14.02;8.27;;;10.40;77.80;;;;;;9184119;19;20018;-67
2022/09/30 02:33:09;;;;;;;13.70;8.63;;;10.40;77.70;;;;;;9184142;19;20448;-67
2022/09/30 02:36:21;;;;;;;11.65;8.23;;;10.30;77.70;;;;;;9184168;19;20460;-67
2022/09/30 02:39:30;;;;;;;12.00;8.00;;;10.30;77.80;;;;;;9183416;19;20413;-68
2022/09/30 02:42:34;;;;;;;10.50;7.90;;;10.20;77.70;;;;;;9182268;19;20011;-67
2022/09/30 02:45:44;;;;;;;11.73;7.68;;;10.20;77.70;;;;;;9183880;19;20022;-68
2022/09/30 02:48:56;;;;;;;9.88;7.50;;;10.10;77.70;;;;;;9183437;19;20039;-67
2022/09/30 02:52:14;;;;;;;15.77;8.75;;;10.00;77.80;;;;;;9184185;19;20010;-67
2022/09/30 02:55:24;;;;;;;11.40;7.95;;;10.00;77.80;;;;;;9183428;19;20090;-67
2022/09/30 02:58:28;;;;;;;12.50;8.05;;;10.00;77.90;;;;;;9176758;19;20015;-67
2022/09/30 03:01:32;;;;;;;12.52;7.95;;;9.90;77.80;;;;;;9182005;19;20140;-67
2022/09/30 03:04:40;;;;;;;16.23;7.93;;;9.90;77.80;;;;;;9182519;19;20104;-67
2022/09/30 03:07:45;;;;;;;10.40;7.53;;;9.80;77.80;;;;;;9183552;19;20014;-67
2022/09/30 03:10:52;;;;;;;12.00;8.75;;;9.70;77.90;;;;;;9182333;19;20010;-69
2022/09/30 03:14:19;;;;;;;14.85;8.95;;;9.70;77.90;;;;;;9178153;19;20019;-68
2022/09/30 03:17:43;;;;;;;11.98;7.82;;;9.70;78.00;;;;;;9174854;19;20022;-66
2022/09/30 03:20:59;;;;;;;10.73;8.10;;;9.60;77.90;;;;;;9178498;19;20022;-67
2022/09/30 03:24:23;;;;;;;14.77;8.27;;;9.50;77.90;;;;;;9177969;19;20014;-69
2022/09/30 03:27:33;;;;;;;13.10;8.50;;;9.50;78.00;;;;;;9182518;19;20028;-68
2022/09/30 03:30:45;;;;;;;11.20;8.23;;;9.50;78.00;;;;;;9180581;19;20522;-68
2022/09/30 03:33:54;;;;;;;12.18;7.15;;;9.40;78.00;;;;;;9182091;19;20078;-68
2022/09/30 03:37:03;;;;;;;15.73;8.13;;;9.40;78.00;;;;;;9180146;19;20014;-68
2022/09/30 03:40:19;;;;;;;13.18;8.30;;;9.30;78.10;;;;;;9181857;19;20010;-68
2022/09/30 03:43:30;;;;;;;13.35;8.40;;;9.30;78.10;;;;;;9175576;19;20014;-67
2022/09/30 03:46:36;;;;;;;12.15;8.02;;;9.30;78.10;;;;;;9175361;19;20026;-67
2022/09/30 03:49:46;;;;;;;12.93;8.50;;;9.20;78.10;;;;;;9171691;19;20026;-67
2022/09/30 03:52:51;;;;;;;11.52;8.80;;;9.20;78.10;;;;;;9171181;19;20026;-69
2022/09/30 03:55:57;;;;;;;12.18;7.75;;;9.10;78.10;;;;;;9171883;19;20097;-66
2022/09/30 03:59:01;;;;;;;10.85;7.78;;;9.10;78.10;;;;;;9167806;19;20020;-66
2022/09/30 04:02:09;;;;;;;16.70;8.73;;;9.10;78.20;;;;;;9173882;19;20019;-67
2022/09/30 04:05:13;;;;;;;14.32;8.98;;;9.10;78.20;;;;;;9175051;19;20086;-67
2022/09/30 04:08:17;;;;;;;13.32;8.65;;;9.00;78.20;;;;;;9171511;19;21232;-66
2022/09/30 04:11:23;;;;;;;14.43;8.57;;;9.00;78.10;;;;;;9171619;19;20021;-67
2022/09/30 04:14:26;;;;;;;12.82;8.70;;;9.00;78.20;;;;;;9172137;19;20006;-67
2022/09/30 04:17:30;;;;;;;14.52;8.75;;;8.90;78.10;;;;;;9172367;19;20018;-67
2022/09/30 04:20:34;;;;;;;;;;;8.90;78.20;;;;;;9173087;19;20019;-67
2022/09/30 04:23:38;;;;;;;12.80;8.70;;;8.90;78.20;;;;;;9171703;19;19940;-67
2022/09/30 04:26:43;;;;;;;;;;;8.80;78.10;;;;;;9171171;19;20033;-66
2022/09/30 04:29:47;;;;;;;13.15;9.00;;;8.80;78.10;;;;;;9172026;19;19927;-68
2022/09/30 04:32:50;;;;;;;15.90;10.05;;;8.80;78.10;;;;;;9172461;19;20018;-67
2022/09/30 04:35:55;;;;;;;15.27;9.13;;;8.80;78.20;;;;;;9174314;19;20615;-66
2022/09/30 04:38:58;;;;;;;15.05;9.32;;;8.70;78.20;;;;;;9171951;19;20006;-66
2022/09/30 04:42:05;;;;;;;18.67;11.43;;;8.70;78.20;;;;;;9170302;19;20029;-67
2022/09/30 04:45:10;;;;;;;18.02;11.77;;;8.70;78.30;;;;;;9169171;19;20014;-66
2022/09/30 04:48:14;;;;;;;17.00;10.57;;;8.70;78.40;;;;;;9170993;19;20018;-65
2022/09/30 04:51:20;;;;;;;17.25;12.02;;;8.70;78.40;;;;;;9172764;19;20015;-67
2022/09/30 04:54:24;;;;;;;16.15;11.40;;;8.70;78.50;;;;;;9175740;19;20023;-67
2022/09/30 04:57:29;;;;;;;20.70;11.82;;;8.60;78.50;;;;;;9172679;19;20622;-67
2022/09/30 05:00:33;;;;;;;15.38;11.25;;;8.60;78.40;;;;;;9179152;19;20078;-67
2022/09/30 05:03:37;;;;;;;20.55;12.10;;;8.60;78.50;;;;;;9175734;19;20406;-66
2022/09/30 05:06:41;;;;;;;18.33;12.43;;;8.60;78.50;;;;;;9178880;19;20029;-67
2022/09/30 05:09:45;;;;;;;23.45;12.82;;;8.50;78.50;;;;;;9176037;19;20030;-68
2022/09/30 05:12:53;;;;;;;;;;;8.50;78.50;;;;;;9179067;19;20582;-68
2022/09/30 05:15:57;;;;;;;17.20;11.18;;;8.60;78.60;;;;;;9178644;19;19975;-67
2022/09/30 05:19:01;;;;;;;17.60;10.75;;;8.50;78.40;;;;;;9177975;19;20015;-69
2022/09/30 05:22:04;;;;;;;15.25;10.65;;;8.50;78.50;;;;;;9180603;19;21001;-67
2022/09/30 05:25:09;;;;;;;18.02;12.15;;;8.50;78.50;;;;;;9186071;19;20352;-69
2022/09/30 05:28:15;;;;;;;19.70;11.75;;;8.50;78.60;;;;;;9185655;19;20011;-67
2022/09/30 05:31:19;;;;;;;17.02;11.80;;;8.50;78.60;;;;;;9184470;19;20041;-68
2022/09/30 05:34:23;;;;;;;17.65;12.07;;;8.50;78.60;;;;;;9181982;19;20050;-68
2022/09/30 05:37:27;;;;;;;18.73;11.75;;;8.40;78.60;;;;;;9186608;19;20034;-67
2022/09/30 05:40:31;;;;;;;18.48;12.40;;;8.40;78.60;;;;;;9185919;19;20010;-67
2022/09/30 05:43:38;;;;;;;;;;;8.40;78.70;;;;;;9185126;19;20101;-67
2022/09/30 05:46:41;;;;;;;18.85;12.35;;;8.40;79.20;;;;;;9182664;19;19955;-67
2022/09/30 05:49:45;;;;;;;21.48;12.38;;;8.40;78.50;;;;;;9185366;19;20021;-68
2022/09/30 05:52:49;;;;;;;;;;;8.40;78.60;;;;;;9184260;19;20022;-67
2022/09/30 05:55:53;;;;;;;17.63;11.60;;;8.40;78.60;;;;;;9185652;19;19950;-67
2022/09/30 05:58:59;;;;;;;;;;;8.40;78.50;;;;;;9182454;19;20305;-69
2022/09/30 06:02:02;;;;;;;22.15;12.00;;;8.30;78.60;;;;;;9184422;19;20384;-69
2022/09/30 06:05:07;;;;;;;19.55;12.68;;;8.30;78.50;;;;;;9184673;19;20118;-70
2022/09/30 06:08:11;;;;;;;22.45;13.02;;;8.30;78.60;;;;;;9184632;19;20031;-68
2022/09/30 06:11:16;;;;;;;;;;;8.30;78.70;;;;;;9184307;19;20032;-67
2022/09/30 06:14:22;;;;;;;21.65;12.73;;;8.30;78.70;;;;;;9183272;19;20373;-66
2022/09/30 06:17:26;;;;;;;18.13;12.45;;;8.30;78.60;;;;;;9185302;19;20029;-67
2022/09/30 06:20:30;;;;;;;20.42;12.88;;;8.30;78.70;;;;;;9184919;19;20470;-69
2022/09/30 06:23:33;;;;;;;20.00;13.50;;;8.30;78.90;;;;;;9182361;19;20398;-68
2022/09/30 06:26:37;;;;;;;18.98;12.70;;;8.30;78.90;;;;;;9185045;19;20035;-68
2022/09/30 06:29:43;;;;;;;22.38;12.82;;;8.30;78.90;;;;;;9183987;19;20044;-68
2022/09/30 06:32:46;;;;;;;19.48;12.90;;;8.30;79.00;;;;;;9180852;19;20011;-69
2022/09/30 06:35:51;;;;;;;18.90;12.73;;;8.30;79.00;;;;;;9184025;19;20471;-68
2022/09/30 06:38:55;;;;;;;22.42;14.13;;;8.30;79.00;;;;;;9182485;19;20023;-69
2022/09/30 06:41:59;;;;;;;22.98;13.73;;;8.30;79.10;;;;;;9179792;19;20022;-68
2022/09/30 06:45:05;;;;;;;23.08;14.38;;;8.30;79.20;;;;;;9184471;19;20097;-68
2022/09/30 06:48:10;;;;;;;22.73;14.43;;;8.30;79.20;;;;;;9183362;19;20019;-68
2022/09/30 06:51:14;;;;;;;24.85;15.73;;;8.40;79.20;;;;;;9184045;19;20018;-68
2022/09/30 06:54:18;;;;;;;24.77;15.40;;;8.40;79.30;;;;;;9184047;19;20018;-67
2022/09/30 06:57:23;;;;;;;27.95;14.98;;;8.40;79.30;;;;;;9177646;19;20050;-69
2022/09/30 07:00:29;;;;;;;28.80;16.17;;;8.40;79.40;;;;;;9184042;19;20385;-68
2022/09/30 07:03:35;;;;;;;26.58;15.82;;;8.40;79.40;;;;;;9180982;19;20421;-68
2022/09/30 07:06:40;;;;;;;28.40;16.85;;;8.40;79.50;;;;;;9182688;19;20014;-68
2022/09/30 07:09:44;;;;;;;29.67;16.60;;;8.50;79.60;;;;;;9180785;19;20363;-67
2022/09/30 07:12:50;;;;;;;25.35;17.13;;;8.50;79.60;;;;;;9183476;19;20395;-68
2022/09/30 07:15:56;;;;;;;25.58;16.63;;;8.50;79.70;;;;;;9182644;19;20031;-69
2022/09/30 07:19:01;;;;;;;37.33;20.73;;;8.60;79.80;;;;;;9180331;19;20054;-68
2022/09/30 07:25:21;;;;;;;35.10;18.23;;;8.70;79.90;;;;;;9170267;19;20015;-69
2022/09/30 07:28:29;;;;;;;31.70;20.60;;;8.80;80.00;;;;;;9172815;19;20022;-68
2022/09/30 07:31:35;;;;;;;33.85;20.75;;;8.90;80.10;;;;;;9170933;19;20010;-68
2022/09/30 07:34:42;;;;;;;40.70;22.55;;;8.90;80.20;;;;;;9174123;19;20442;-69
2022/09/30 07:37:45;;;;;;;40.70;21.98;;;9.00;80.30;;;;;;9173292;19;20064;-69
2022/09/30 07:40:58;;;;;;;32.13;21.00;;;9.10;80.30;;;;;;9177404;19;20055;-69
2022/09/30 07:44:04;;;;;;;44.97;23.60;;;9.20;80.50;;;;;;9174284;19;20078;-69
2022/09/30 07:47:11;;;;;;;40.17;24.63;;;9.30;80.50;;;;;;9178746;19;20098;-68
2022/09/30 07:50:15;;;;;;;42.45;24.13;;;9.40;80.60;;;;;;9178948;19;20070;-68
2022/09/30 07:53:19;;;;;;;44.33;25.90;;;9.60;80.80;;;;;;9179705;19;20099;-68
2022/09/30 07:56:25;;;;;;;37.55;23.45;;;9.70;80.90;;;;;;9177195;19;20025;-68
2022/09/30 07:59:30;;;;;;;35.63;21.55;;;9.90;80.90;;;;;;9180916;19;20096;-68
2022/09/30 08:02:35;;;;;;;36.72;22.73;;;10.10;80.90;;;;;;9179278;19;20074;-67
2022/09/30 08:05:40;;;;;;;37.38;19.52;;;10.30;80.90;;;;;;9181062;19;20082;-70
2022/09/30 08:08:45;;;;;;;30.13;19.42;;;10.40;80.90;;;;;;9178509;19;20010;-69
2022/09/30 08:11:49;;;;;;;32.33;21.40;;;10.60;80.90;;;;;;9176200;19;20030;-68
2022/09/30 08:14:52;;;;;;;;;;;10.80;80.90;;;;;;9179974;19;20070;-68
2022/09/30 08:17:58;;;;;;;32.42;18.50;;;11.00;80.90;;;;;;9179563;19;20000;-67
2022/09/30 08:21:05;;;;;;;30.58;18.00;;;11.20;80.60;;;;;;9179369;19;20445;-67
2022/09/30 08:24:08;;;;;;;33.33;18.20;;;11.40;80.70;;;;;;9175047;19;20021;-68
2022/09/30 08:27:12;;;;;;;28.17;17.65;;;11.70;80.70;;;;;;9175940;19;20500;-68
2022/09/30 08:30:16;;;;;;;26.08;15.93;;;11.90;80.60;;;;;;9172355;19;20063;-68
2022/09/30 08:33:22;;;;;;;31.08;17.13;;;12.10;80.60;;;;;;9172006;19;20039;-69
2022/09/30 08:36:27;;;;;;;23.52;16.08;;;12.30;80.50;;;;;;9173579;19;20019;-69
2022/09/30 08:39:31;;;;;;;27.90;16.98;;;12.50;80.40;;;;;;9170315;19;20022;-69
2022/09/30 08:42:49;;;;;;;23.10;14.00;;;12.70;80.30;;;;;;9169909;19;20018;-69
2022/09/30 08:46:08;;;;;;;25.35;14.25;;;12.90;80.20;;;;;;9173253;19;20029;-68
2022/09/30 08:49:30;;;;;;;26.35;13.93;;;13.20;80.10;;;;;;9169128;19;20022;-68
2022/09/30 08:52:39;;;;;;;22.67;13.27;;;13.40;80.00;;;;;;9168323;19;20058;-69
2022/09/30 08:56:01;;;;;;;22.17;13.43;;;13.70;79.80;;;;;;9169652;19;20018;-68
2022/09/30 08:59:14;;;;;;;22.75;12.30;;;13.90;79.60;;;;;;9175320;19;20482;-69
2022/09/30 09:02:23;;;;;;;18.37;9.57;;;14.10;79.50;;;;;;9176554;19;20024;-67
2022/09/30 09:05:40;;;;;;;20.52;11.95;;;14.40;79.40;;;;;;9178321;19;20627;-68
2022/09/30 09:08:56;;;;;;;18.08;11.93;;;14.50;79.00;;;;;;9176266;19;20796;-67
2022/09/30 09:12:08;;;;;;;18.65;11.43;;;14.70;78.90;;;;;;9175707;19;20793;-68
2022/09/30 09:15:23;;;;;;;21.48;11.93;;;14.90;78.70;;;;;;9176297;19;20026;-69
2022/09/30 09:18:52;;;;;;;21.63;11.75;;;15.10;78.90;;;;;;9179294;19;20074;-69
2022/09/30 09:22:02;;;;;;;20.38;12.23;;;15.30;78.40;;;;;;9184181;19;20011;-69
2022/09/30 09:25:06;;;;;;;24.65;11.75;;;15.50;78.20;;;;;;9183214;19;20082;-69
2022/09/30 09:28:24;;;;;;;22.02;12.77;;;15.70;78.10;;;;;;9178974;19;20035;-69
2022/09/30 09:31:28;;;;;;;18.85;10.52;;;15.80;77.80;;;;;;9176990;19;20022;-69
2022/09/30 09:34:32;;;;;;;18.48;10.82;;;16.00;77.70;;;;;;9185029;19;20025;-69
2022/09/30 09:41:21;;;;;;;17.45;10.50;;;16.40;77.40;;;;;;9182316;19;20096;-71
2022/09/30 09:44:30;;;;;;;19.40;11.15;;;16.60;77.20;;;;;;9177216;19;20021;-70
2022/09/30 09:47:33;;;;;;;16.60;10.23;;;16.80;77.10;;;;;;9182995;19;20106;-71
2022/09/30 09:50:46;;;;;;;19.80;10.38;;;16.90;76.90;;;;;;9181901;19;20104;-70
2022/09/30 09:53:56;;;;;;;13.98;9.18;;;17.10;76.70;;;;;;9179790;19;20019;-68
2022/09/30 09:57:08;;;;;;;13.98;9.00;;;17.30;76.40;;;;;;9173832;19;20018;-72
2022/09/30 10:03:31;;;;;;;15.05;9.10;;;17.60;75.90;;;;;;9179331;19;20097;-72
2022/09/30 10:06:44;;;;;;;15.10;9.48;;;17.70;75.60;;;;;;9176495;19;20059;-67
2022/09/30 10:10:01;;;;;;;17.38;9.27;;;17.80;75.20;;;;;;9153277;19;20109;-67
2022/09/30 10:13:05;;;;;;;14.45;9.15;;;18.00;75.20;;;;;;9180857;19;20022;-68
2022/09/30 10:16:27;;;;;;;25.58;9.70;;;18.00;75.00;;;;;;9180519;19;20098;-68
2022/09/30 10:19:34;;;;;;;17.25;9.52;;;18.20;74.60;;;;;;9180599;19;20014;-69
2022/09/30 10:22:38;;;;;;;16.10;10.23;;;18.30;74.80;;;;;;9176159;19;20015;-67
2022/09/30 10:25:57;;;;;;;17.92;11.98;;;18.40;74.60;;;;;;9177800;19;20507;-67
2022/09/30 10:29:03;;;;;;;19.15;11.82;;;18.50;74.00;;;;;;9179577;19;20035;-65
2022/09/30 10:32:11;;;;;;;17.58;11.48;;;18.70;74.10;;;;;;9124583;19;20105;-67
2022/09/30 10:35:21;;;;;;;17.05;10.65;;;18.80;73.80;;;;;;9146137;19;20021;-68
2022/09/30 10:38:28;;;;;;;16.05;10.60;;;18.90;73.40;;;;;;9176054;19;20078;-69
2022/09/30 10:41:36;;;;;;;17.20;11.13;;;19.00;73.30;;;;;;9181354;19;20010;-70
2022/09/30 10:44:46;;;;;;;26.38;12.48;;;19.00;73.00;;;;;;9176944;19;20015;-69
2022/09/30 10:47:53;;;;;;;17.05;11.90;;;19.10;72.80;;;;;;9181904;19;20051;-69
2022/09/30 10:50:58;;;;;;;20.25;12.50;;;19.20;72.70;;;;;;9181413;19;20022;-69
2022/09/30 10:54:02;;;;;;;17.15;10.40;;;19.30;72.50;;;;;;9180854;19;20019;-71
2022/09/30 10:57:15;;;;;;;21.52;10.82;;;19.30;72.30;;;;;;9178339;19;20097;-69
2022/09/30 11:00:22;;;;;;;17.27;12.00;;;19.40;71.90;;;;;;9174307;19;20090;-68
2022/09/30 11:03:33;;;;;;;19.48;11.20;;;19.50;72.00;;;;;;9174933;19;20085;-68
2022/09/30 11:06:40;;;;;;;21.15;11.75;;;19.60;71.70;;;;;;9174809;19;20089;-68
2022/09/30 11:09:50;;;;;;;18.50;11.82;;;19.60;71.40;;;;;;9179687;19;20448;-70
2022/09/30 11:13:02;;;;;;;15.93;11.85;;;19.70;71.30;;;;;;9183073;19;20018;-67
2022/09/30 11:16:13;;;;;;;19.65;12.80;;;19.70;71.00;;;;;;9176818;19;20368;-69
2022/09/30 11:19:23;;;;;;;18.77;12.35;;;19.70;71.00;;;;;;9171909;19;20090;-69
2022/09/30 11:22:38;;;;;;;16.80;11.57;;;19.80;70.80;;;;;;9174761;19;20055;-69
2022/09/30 11:25:48;;;;;;;18.73;12.63;;;19.90;70.60;;;;;;9176032;19;20033;-69
2022/09/30 11:29:06;;;;;;;17.38;10.90;;;19.90;70.60;;;;;;9175360;19;20136;-71
2022/09/30 11:32:20;;;;;;;18.08;11.02;;;20.00;70.10;;;;;;9176825;19;20086;-70
2022/09/30 11:35:40;;;;;;;15.00;10.63;;;20.00;70.10;;;;;;9181471;19;20007;-70
2022/09/30 11:39:13;;;;;;;14.20;10.00;;;20.10;69.70;;;;;;9177070;19;20074;-71
2022/09/30 11:42:24;;;;;;;15.77;10.77;;;20.10;69.40;;;;;;9181722;19;20074;-70
2022/09/30 11:45:41;;;;;;;14.93;10.15;;;20.10;69.60;;;;;;9178699;19;20010;-69
2022/09/30 11:49:07;;;;;;;12.38;9.02;;;20.20;69.40;;;;;;9181429;19;20013;-71
2022/09/30 11:52:24;;;;;;;20.13;10.25;;;20.20;69.10;;;;;;9179082;19;20117;-71
2022/09/30 11:55:50;;;;;;;15.13;10.20;;;20.30;69.20;;;;;;9179392;19;20023;-71
2022/09/30 11:58:58;;;;;;;16.65;9.75;;;20.30;68.80;;;;;;9146283;19;20018;-69
2022/09/30 12:02:11;;;;;;;15.05;10.07;;;20.40;69.20;;;;;;9176571;19;20018;-71
2022/09/30 12:05:20;;;;;;;16.15;10.18;;;20.40;68.80;;;;;;9173367;19;20034;-71
2022/09/30 12:08:29;;;;;;;13.07;10.30;;;20.40;68.60;;;;;;9177264;19;20011;-69
2022/09/30 12:11:39;;;;;;;18.75;9.48;;;20.40;68.40;;;;;;9177979;19;20460;-69
2022/09/30 12:14:46;;;;;;;12.60;9.25;;;20.40;68.10;;;;;;9171600;19;20348;-71
2022/09/30 12:17:59;;;;;;;11.43;9.10;;;20.30;68.00;;;;;;9172767;19;20449;-71
2022/09/30 12:21:10;;;;;;;14.43;9.57;;;20.30;67.80;;;;;;9177423;19;20126;-69
2022/09/30 12:24:22;;;;;;;14.65;9.02;;;20.30;67.90;;;;;;9177746;19;20007;-72
2022/09/30 12:27:33;;;;;;;14.95;9.68;;;20.20;67.50;;;;;;9180070;19;20344;-70
2022/09/30 12:30:35;;;;;;;13.70;8.57;;;20.20;67.50;;;;;;9181427;19;20015;-71
2022/09/30 12:33:58;;;;;;;14.27;9.30;;;20.20;67.60;;;;;;9180755;19;20019;-71
2022/09/30 12:37:19;;;;;;;14.13;10.10;;;20.10;67.10;;;;;;9179895;19;20024;-72
2022/09/30 12:40:41;;;;;;;16.85;9.75;;;20.10;67.10;;;;;;9178059;19;20026;-71
2022/09/30 12:44:07;;;;;;;13.55;9.98;;;20.00;67.00;;;;;;9177398;19;20484;-70
2022/09/30 12:47:28;;;;;;;14.13;9.77;;;19.90;66.80;;;;;;9174611;19;20006;-71
2022/09/30 12:50:41;;;;;;;14.07;10.02;;;19.90;66.90;;;;;;9179038;19;20452;-69
2022/09/30 12:53:45;;;;;;;13.52;10.07;;;19.80;67.00;;;;;;9178781;19;20101;-71
2022/09/30 12:56:55;;;;;;;17.35;10.68;;;19.70;67.00;;;;;;9174601;19;20026;-71
2022/09/30 13:00:06;;;;;;;15.98;9.85;;;19.60;66.70;;;;;;9179380;19;20022;-71
2022/09/30 13:03:18;;;;;;;15.45;10.73;;;19.50;66.80;;;;;;9176982;19;20039;-70
2022/09/30 13:06:24;;;;;;;14.13;10.77;;;19.40;66.90;;;;;;9177495;19;20512;-71
2022/09/30 13:09:32;;;;;;;15.80;12.10;;;19.30;66.90;;;;;;9175916;19;20468;-71
2022/09/30 13:12:44;;;;;;;18.00;10.68;;;19.20;66.80;;;;;;9179267;19;20022;-71
2022/09/30 13:15:48;;;;;;;17.58;11.18;;;19.10;66.70;;;;;;9176081;19;20342;-72
2022/09/30 13:19:09;;;;;;;;;;;19.00;67.00;;;;;;9178831;19;20030;-70
2022/09/30 13:22:53;;;;;;;13.95;10.15;;;19.00;67.30;;;;;;9176274;19;20279;-70
2022/09/30 13:26:00;;;;;;;16.70;10.75;;;18.90;67.10;;;;;;9178094;19;20465;-72
2022/09/30 13:29:43;;;;;;;16.55;11.63;;;18.80;67.30;;;;;;9177409;19;20396;-69
2022/09/30 13:32:50;;;;;;;16.83;10.40;;;18.80;67.00;;;;;;9176352;19;20014;-71
2022/09/30 13:36:09;;;;;;;13.43;10.00;;;18.80;67.30;;;;;;9173749;19;20422;-69
2022/09/30 13:39:22;;;;;;;16.50;9.77;;;18.80;67.20;;;;;;9177587;19;20037;-69
2022/09/30 13:42:30;;;;;;;16.45;9.75;;;18.80;67.10;;;;;;9178394;19;20397;-71
2022/09/30 13:45:38;;;;;;;16.40;10.88;;;18.70;67.10;;;;;;9183280;19;20023;-70
2022/09/30 13:48:49;;;;;;;14.70;10.73;;;18.70;67.00;;;;;;9185029;19;20007;-70
2022/09/30 13:51:55;;;;;;;20.15;11.27;;;18.70;67.00;;;;;;9184941;19;20075;-69
2022/09/30 13:55:03;;;;;;;14.77;10.10;;;18.70;67.00;;;;;;9184915;19;20019;-70
2022/09/30 13:58:29;;;;;;;14.68;10.88;;;18.70;66.90;;;;;;9180524;19;20014;-70
2022/09/30 14:01:48;;;;;;;17.35;11.15;;;18.60;66.70;;;;;;9184539;19;20029;-70
2022/09/30 14:05:16;;;;;;;15.68;10.40;;;18.60;66.80;;;;;;9183133;19;20093;-69
2022/09/30 14:08:51;;;;;;;15.38;10.07;;;18.60;66.90;;;;;;9182995;19;20026;-70
2022/09/30 14:12:22;;;;;;;12.10;9.68;;;18.60;66.70;;;;;;9182286;19;20022;-69
2022/09/30 14:15:47;;;;;;;13.38;9.75;;;18.60;66.80;;;;;;9184953;19;20090;-71
2022/09/30 14:19:21;;;;;;;11.63;8.27;;;18.50;66.60;;;;;;9184730;19;20368;-72
2022/09/30 14:22:28;;;;;;;14.75;8.82;;;18.50;66.70;;;;;;9183860;19;20492;-70
2022/09/30 14:25:38;;;;;;;12.73;8.50;;;18.50;66.90;;;;;;9180746;19;20389;-70
2022/09/30 14:28:48;;;;;;;12.10;9.10;;;18.50;66.90;;;;;;9176610;19;20018;-71
2022/09/30 14:31:54;;;;;;;12.05;8.80;;;18.40;66.80;;;;;;9174158;19;20015;-70
2022/09/30 14:34:59;;;;;;;13.02;9.43;;;18.40;66.80;;;;;;9177174;19;20086;-68
2022/09/30 14:38:07;;;;;;;13.32;9.32;;;18.40;66.80;;;;;;9175247;19;20023;-68
2022/09/30 14:41:19;;;;;;;12.40;8.30;;;18.30;66.70;;;;;;9176193;19;20044;-71
2022/09/30 14:44:27;;;;;;;16.45;8.65;;;18.30;66.60;;;;;;9175563;19;20841;-69
2022/09/30 14:47:36;;;;;;;11.70;8.13;;;18.20;66.70;;;;;;9178351;19;20101;-68
2022/09/30 14:50:47;;;;;;;12.32;7.88;;;18.20;66.70;;;;;;9178260;19;20612;-69
2022/09/30 14:53:56;;;;;;;11.77;7.68;;;18.20;66.70;;;;;;9172532;19;20445;-71
2022/09/30 14:57:03;;;;;;;10.48;7.00;;;18.10;66.60;;;;;;9173820;19;20534;-68
2022/09/30 15:00:23;;;;;;;9.15;6.75;;;18.10;66.60;;;;;;9173813;19;20394;-71
2022/09/30 15:03:30;;;;;;;9.15;6.57;;;18.00;66.40;;;;;;9173489;19;20030;-70
2022/09/30 15:06:36;;;;;;;9.60;6.72;;;18.00;66.70;;;;;;9174233;19;20098;-69
2022/09/30 15:09:43;;;;;;;13.10;6.75;;;17.90;66.70;;;;;;9173439;19;20366;-70
2022/09/30 15:12:49;;;;;;;10.20;6.70;;;17.90;66.70;;;;;;9174426;19;20021;-69
2022/09/30 15:15:52;;;;;;;8.38;5.95;;;17.80;66.70;;;;;;9174701;19;20063;-70
2022/09/30 15:18:58;;;;;;;11.65;8.18;;;17.80;66.70;;;;;;9175230;19;20341;-69
2022/09/30 15:22:05;;;;;;;11.30;6.90;;;17.70;66.70;;;;;;9182929;19;20018;-70
2022/09/30 15:25:13;;;;;;;9.50;5.90;;;17.60;66.70;;;;;;9179027;19;20077;-70
2022/09/30 15:28:16;;;;;;;11.10;5.90;;;17.60;66.70;;;;;;9182537;19;20011;-71
2022/09/30 15:31:26;;;;;;;12.77;6.72;;;17.50;66.80;;;;;;9182275;19;20014;-70
2022/09/30 15:34:33;;;;;;;10.02;5.93;;;17.50;66.80;;;;;;9177657;19;20018;-70
2022/09/30 15:37:36;;;;;;;8.75;4.78;;;17.50;66.80;;;;;;9177718;19;20025;-71
2022/09/30 15:40:49;;;;;;;8.82;4.45;;;17.40;66.80;;;;;;9176782;19;20078;-69
2022/09/30 15:43:54;;;;;;;9.18;4.32;;;17.40;66.90;;;;;;9177072;19;20018;-68
2022/09/30 15:47:03;;;;;;;8.32;4.78;;;17.30;66.90;;;;;;9175788;19;20534;-70
2022/09/30 15:50:40;;;;;;;5.65;3.65;;;17.30;66.90;;;;;;9180083;19;20456;-71
2022/09/30 15:53:50;;;;;;;8.18;3.55;;;17.20;66.80;;;;;;9180394;19;20556;-69
2022/09/30 15:56:53;;;;;;;6.63;3.92;;;17.20;66.90;;;;;;9175060;19;20345;-70
2022/09/30 15:59:59;;;;;;;8.40;3.63;;;17.10;67.00;;;;;;9173104;19;20021;-69
2022/09/30 16:03:33;;;;;;;5.80;3.60;;;17.10;67.00;;;;;;9173895;19;20121;-69
2022/09/30 16:06:46;;;;;;;5.63;3.73;;;17.00;66.80;;;;;;9173729;19;20018;-70
2022/09/30 16:09:50;;;;;;;7.88;3.20;;;16.90;66.90;;;;;;9171822;19;20063;-68
2022/09/30 16:12:53;;;;;;;5.80;3.33;;;16.90;67.10;;;;;;9174415;19;20042;-70
2022/09/30 16:16:00;;;;;;;6.18;3.15;;;16.80;67.00;;;;;;9175258;19;20079;-68
2022/09/30 16:19:06;;;;;;;11.35;5.18;;;16.70;67.00;;;;;;9174552;19;20014;-69
2022/09/30 16:22:35;;;;;;;8.23;3.95;;;16.70;67.00;;;;;;9173509;19;20014;-69
2022/09/30 16:25:39;;;;;;;6.50;3.38;;;16.60;66.90;;;;;;9169883;19;20169;-70